createdAt,value
2023-12-28T00:23:21.153Z,150
2023-12-28T00:53:22.428Z,141
2023-12-28T01:23:17.548Z,144
2023-12-28T01:53:21.516Z,138
2023-12-28T02:23:18.177Z,134
2023-12-28T02:53:23.047Z,131
2023-12-28T03:23:23.773Z,125
2023-12-28T03:53:20.512Z,123
2023-12-28T04:23:16.828Z,123
2023-12-28T04:53:15.786Z,118
2023-12-28T05:23:13.736Z,113
2023-12-28T05:53:14.205Z,116
2023-12-28T06:23:09.027Z,110
2023-12-28T06:53:08.776Z,110
2023-12-28T07:23:10.946Z,107
2023-12-28T07:53:08.954Z,113
2023-12-28T08:23:01.370Z,114
2023-12-28T08:53:01.863Z,109
2023-12-28T09:23:02.494Z,101
2023-12-28T09:53:00.865Z,101
2023-12-28T10:23:03.706Z,143
2023-12-28T10:53:03.310Z,114
2023-12-28T11:53:04.204Z,108
2023-12-28T12:23:00.680Z,103
2023-12-28T12:53:00.892Z,107
2023-12-28T13:22:57.879Z,104
2023-12-28T13:52:57.951Z,103
2023-12-28T14:22:57.854Z,103
2023-12-28T14:52:56.138Z,103
2023-12-28T15:23:00.945Z,100
2023-12-28T15:52:58.005Z,99
2023-12-28T16:22:58.575Z,97
2023-12-28T17:23:04.539Z,92
2023-12-28T17:53:08.677Z,90
2023-12-28T18:23:04.908Z,86
2023-12-28T18:53:03.215Z,84
2023-12-28T19:23:07.274Z,81
2023-12-28T19:53:03.297Z,78
2023-12-28T20:23:06.469Z,76
2023-12-28T20:54:19.905Z,75
2023-12-28T21:24:14.111Z,74
2023-12-28T21:54:10.711Z,73
2023-12-28T22:24:09.361Z,77
2023-12-28T22:54:12.299Z,75
2023-12-28T23:24:09.136Z,74
2023-12-28T23:55:16.930Z,74
